Saint Catharines, Canada
Current Conditions -  °F | °C
As of 2:31 PM on Friday 31 Oct 2014 (Local Time) from CYSN Reporting Station
Overcast Overcast  
Wind Chill: 48°   Ceiling: 6400
Heat Index: 48°   Visibility: 12mi
Dew Point: 43°   Wind: 3mph
Humidity: 82%   Direction: 240°WSW
Pressure: 29.89"   Gusts: NA
Location:  43.16°N, 79.25°W
Report Text: CYSN 311831Z 24003KT 190V270 12SM FEW012 SCT030 OVC064 09/06 A2989 RMK SC1SC2SC5 SLP124
Loading
Personal Weather Stations






























Interactive Weather Map
Tropical Storm Tracking
New forecast layout! Learn more

10-Day Weather Forecast

Advertisements
Track Severe Weather on mobile